sensor_id;sensor_type;location;lat;lon;timestamp;pressure;altitude;pressure_sealevel;temperature;humidity
48390;BME280;34643;47.964;7.982;2023-02-18T00:00:06;97858.59;;;17.75;56.69
48390;BME280;34643;47.964;7.982;2023-02-18T00:05:07;97862.97;;;17.75;56.60
48390;BME280;34643;47.964;7.982;2023-02-18T00:10:10;97872.56;;;17.74;56.87
48390;BME280;34643;47.964;7.982;2023-02-18T00:15:11;97871.56;;;17.77;56.63
48390;BME280;34643;47.964;7.982;2023-02-18T00:20:11;97865.47;;;17.76;57.06
48390;BME280;34643;47.964;7.982;2023-02-18T00:25:11;97857.84;;;17.73;57.06
48390;BME280;34643;47.964;7.982;2023-02-18T00:30:12;97855.22;;;17.73;57.02
48390;BME280;34643;47.964;7.982;2023-02-18T00:35:12;97856.13;;;17.72;56.88
48390;BME280;34643;47.964;7.982;2023-02-18T00:40:16;97837.94;;;17.71;56.96
48390;BME280;34643;47.964;7.982;2023-02-18T00:45:16;97833.56;;;17.71;57.07
48390;BME280;34643;47.964;7.982;2023-02-18T00:50:16;97824.81;;;17.72;57.20
48390;BME280;34643;47.964;7.982;2023-02-18T00:55:17;97825.63;;;17.73;57.17
48390;BME280;34643;47.964;7.982;2023-02-18T01:00:17;97819.69;;;17.71;57.34
48390;BME280;34643;47.964;7.982;2023-02-18T01:05:17;97823.25;;;17.70;57.23
48390;BME280;34643;47.964;7.982;2023-02-18T01:10:18;97812.88;;;17.68;57.33
48390;BME280;34643;47.964;7.982;2023-02-18T01:15:18;97810.34;;;17.66;57.15
48390;BME280;34643;47.964;7.982;2023-02-18T01:20:19;97807.75;;;17.66;57.24
48390;BME280;34643;47.964;7.982;2023-02-18T01:25:19;97800.91;;;17.64;57.13
48390;BME280;34643;47.964;7.982;2023-02-18T01:30:19;97798.03;;;17.68;57.48
48390;BME280;34643;47.964;7.982;2023-02-18T01:35:21;97793.84;;;17.66;57.29
48390;BME280;34643;47.964;7.982;2023-02-18T01:40:24;97798.97;;;17.67;57.60
48390;BME280;34643;47.964;7.982;2023-02-18T01:50:33;97795.69;;;17.64;58.02
48390;BME280;34643;47.964;7.982;2023-02-18T01:55:35;97793.06;;;17.64;57.72
48390;BME280;34643;47.964;7.982;2023-02-18T02:00:36;97784.41;;;17.63;58.03
48390;BME280;34643;47.964;7.982;2023-02-18T02:05:36;97784.34;;;17.65;58.06
48390;BME280;34643;47.964;7.982;2023-02-18T02:16:02;97781.91;;;17.62;57.99
48390;BME280;34643;47.964;7.982;2023-02-18T02:26:40;97776.59;;;17.63;58.24
48390;BME280;34643;47.964;7.982;2023-02-18T02:42:06;97761.88;;;17.62;58.08
48390;BME280;34643;47.964;7.982;2023-02-18T02:47:10;97761.09;;;17.60;58.13
48390;BME280;34643;47.964;7.982;2023-02-18T02:52:16;97765.50;;;17.60;58.23
48390;BME280;34643;47.964;7.982;2023-02-18T03:07:54;97756.09;;;17.57;58.32
48390;BME280;34643;47.964;7.982;2023-02-18T03:13:06;97756.81;;;17.59;58.07
48390;BME280;34643;47.964;7.982;2023-02-18T03:18:16;97740.50;;;17.56;58.06
48390;BME280;34643;47.964;7.982;2023-02-18T03:23:21;97731.63;;;17.58;58.19
48390;BME280;34643;47.964;7.982;2023-02-18T03:28:25;97742.81;;;17.60;58.22
48390;BME280;34643;47.964;7.982;2023-02-18T03:33:29;97741.91;;;17.61;58.26
48390;BME280;34643;47.964;7.982;2023-02-18T03:43:33;97723.81;;;17.58;58.29
48390;BME280;34643;47.964;7.982;2023-02-18T03:48:33;97710.75;;;17.58;58.37
48390;BME280;34643;47.964;7.982;2023-02-18T03:53:33;97718.66;;;17.57;58.28
48390;BME280;34643;47.964;7.982;2023-02-18T03:58:33;97721.41;;;17.55;58.48
48390;BME280;34643;47.964;7.982;2023-02-18T04:03:34;97732.59;;;17.57;58.53
48390;BME280;34643;47.964;7.982;2023-02-18T04:08:34;97731.84;;;17.55;58.38
48390;BME280;34643;47.964;7.982;2023-02-18T04:13:34;97733.59;;;17.55;58.40
48390;BME280;34643;47.964;7.982;2023-02-18T04:18:35;97731.84;;;17.55;58.41
48390;BME280;34643;47.964;7.982;2023-02-18T04:23:35;97728.38;;;17.55;58.54
48390;BME280;34643;47.964;7.982;2023-02-18T04:28:35;97726.63;;;17.55;58.45
48390;BME280;34643;47.964;7.982;2023-02-18T04:33:35;97730.97;;;17.55;58.43
48390;BME280;34643;47.964;7.982;2023-02-18T04:38:36;97731.84;;;17.55;58.69
48390;BME280;34643;47.964;7.982;2023-02-18T04:43:36;97730.97;;;17.55;58.72
48390;BME280;34643;47.964;7.982;2023-02-18T04:48:36;97735.38;;;17.54;58.57
48390;BME280;34643;47.964;7.982;2023-02-18T04:53:36;97741.41;;;17.55;58.86
48390;BME280;34643;47.964;7.982;2023-02-18T04:58:37;97738.72;;;17.56;58.96
48390;BME280;34643;47.964;7.982;2023-02-18T05:03:37;97732.69;;;17.56;59.01
48390;BME280;34643;47.964;7.982;2023-02-18T05:08:37;97726.41;;;17.58;58.94
48390;BME280;34643;47.964;7.982;2023-02-18T05:13:37;97722.06;;;17.59;59.32
48390;BME280;34643;47.964;7.982;2023-02-18T05:18:38;97722.88;;;17.59;59.32
48390;BME280;34643;47.964;7.982;2023-02-18T05:23:38;97728.84;;;17.61;59.38
48390;BME280;34643;47.964;7.982;2023-02-18T05:28:38;97730.44;;;17.64;59.40
48390;BME280;34643;47.964;7.982;2023-02-18T05:33:39;97732.28;;;17.62;59.21
48390;BME280;34643;47.964;7.982;2023-02-18T05:38:39;97726.06;;;17.64;59.47
48390;BME280;34643;47.964;7.982;2023-02-18T05:43:39;97712.16;;;17.64;59.28
48390;BME280;34643;47.964;7.982;2023-02-18T05:48:58;97714.00;;;17.62;59.24
48390;BME280;34643;47.964;7.982;2023-02-18T05:53:58;97704.53;;;17.61;59.25
48390;BME280;34643;47.964;7.982;2023-02-18T05:58:58;97701.19;;;17.59;59.22
48390;BME280;34643;47.964;7.982;2023-02-18T06:03:59;97719.16;;;17.63;59.13
48390;BME280;34643;47.964;7.982;2023-02-18T06:08:59;97707.88;;;17.63;59.22
48390;BME280;34643;47.964;7.982;2023-02-18T06:13:59;97722.63;;;17.78;58.84
48390;BME280;34643;47.964;7.982;2023-02-18T06:19:00;97710.69;;;17.89;59.13
48390;BME280;34643;47.964;7.982;2023-02-18T06:24:00;97696.06;;;17.86;58.84
48390;BME280;34643;47.964;7.982;2023-02-18T06:29:00;97702.94;;;17.87;59.01
48390;BME280;34643;47.964;7.982;2023-02-18T06:34:01;97704.63;;;17.88;58.89
48390;BME280;34643;47.964;7.982;2023-02-18T06:39:02;97696.59;;;17.91;58.97
48390;BME280;34643;47.964;7.982;2023-02-18T06:44:02;97695.66;;;17.92;59.05
48390;BME280;34643;47.964;7.982;2023-02-18T06:49:03;97692.03;;;17.95;59.22
48390;BME280;34643;47.964;7.982;2023-02-18T06:54:03;97688.75;;;18.05;58.78
48390;BME280;34643;47.964;7.982;2023-02-18T06:59:04;97693.91;;;17.78;56.92
48390;BME280;34643;47.964;7.982;2023-02-18T07:04:05;97693.03;;;17.35;56.15
48390;BME280;34643;47.964;7.982;2023-02-18T07:09:05;97697.66;;;17.15;54.43
48390;BME280;34643;47.964;7.982;2023-02-18T07:14:05;97710.19;;;16.94;53.28
48390;BME280;34643;47.964;7.982;2023-02-18T07:19:05;97702.00;;;17.31;55.61
48390;BME280;34643;47.964;7.982;2023-02-18T07:24:06;97706.66;;;17.54;54.85
48390;BME280;34643;47.964;7.982;2023-02-18T07:29:06;97699.31;;;17.61;54.86
48390;BME280;34643;47.964;7.982;2023-02-18T07:34:06;97699.31;;;17.61;54.90
48390;BME280;34643;47.964;7.982;2023-02-18T07:39:07;97702.66;;;17.63;55.05
48390;BME280;34643;47.964;7.982;2023-02-18T07:44:07;97708.88;;;17.60;55.27
48390;BME280;34643;47.964;7.982;2023-02-18T07:49:08;97696.78;;;17.59;55.31
48390;BME280;34643;47.964;7.982;2023-02-18T07:54:08;97704.63;;;17.59;55.52
48390;BME280;34643;47.964;7.982;2023-02-18T07:59:08;97711.72;;;17.57;55.59
48390;BME280;34643;47.964;7.982;2023-02-18T08:04:09;97706.66;;;17.68;55.59
48390;BME280;34643;47.964;7.982;2023-02-18T08:09:09;97697.34;;;17.79;55.83
48390;BME280;34643;47.964;7.982;2023-02-18T08:14:10;97711.13;;;17.81;56.12
48390;BME280;34643;47.964;7.982;2023-02-18T08:19:10;97712.63;;;17.85;56.32
48390;BME280;34643;47.964;7.982;2023-02-18T08:24:10;97708.28;;;17.85;56.39
48390;BME280;34643;47.964;7.982;2023-02-18T08:29:10;97708.53;;;17.66;57.03
48390;BME280;34643;47.964;7.982;2023-02-18T08:34:11;97713.44;;;17.71;56.50
48390;BME280;34643;47.964;7.982;2023-02-18T08:39:11;97710.19;;;17.67;56.64
48390;BME280;34643;47.964;7.982;2023-02-18T08:44:11;97706.66;;;17.68;56.54
48390;BME280;34643;47.964;7.982;2023-02-18T08:49:12;97703.97;;;17.70;56.59
48390;BME280;34643;47.964;7.982;2023-02-18T08:54:12;97709.09;;;17.72;56.54
48390;BME280;34643;47.964;7.982;2023-02-18T08:59:12;97706.31;;;17.75;56.59
48390;BME280;34643;47.964;7.982;2023-02-18T09:04:13;97716.28;;;17.97;56.15
48390;BME280;34643;47.964;7.982;2023-02-18T09:09:13;97721.00;;;18.19;56.22
48390;BME280;34643;47.964;7.982;2023-02-18T09:14:13;97724.56;;;18.18;56.39
48390;BME280;34643;47.964;7.982;2023-02-18T09:19:14;97720.75;;;18.09;56.77
48390;BME280;34643;47.964;7.982;2023-02-18T09:24:14;97723.44;;;18.08;56.98
48390;BME280;34643;47.964;7.982;2023-02-18T09:29:14;97719.63;;;18.13;56.98
48390;BME280;34643;47.964;7.982;2023-02-18T09:34:15;97717.94;;;18.12;57.37
48390;BME280;34643;47.964;7.982;2023-02-18T09:39:15;97727.63;;;18.10;57.53
48390;BME280;34643;47.964;7.982;2023-02-18T09:44:21;97723.06;;;17.99;57.56
48390;BME280;34643;47.964;7.982;2023-02-18T09:49:24;97726.47;;;18.01;57.42
48390;BME280;34643;47.964;7.982;2023-02-18T09:54:25;97707.63;;;17.96;57.50
48390;BME280;34643;47.964;7.982;2023-02-18T09:59:25;97719.72;;;17.97;57.44
48390;BME280;34643;47.964;7.982;2023-02-18T10:04:27;97709.28;;;17.97;57.26
48390;BME280;34643;47.964;7.982;2023-02-18T10:09:34;97705.84;;;17.97;57.44
48390;BME280;34643;47.964;7.982;2023-02-18T10:14:34;97710.88;;;18.00;57.31
48390;BME280;34643;47.964;7.982;2023-02-18T10:19:36;97707.41;;;17.99;57.28
48390;BME280;34643;47.964;7.982;2023-02-18T10:29:41;97684.66;;;18.01;57.09
48390;BME280;34643;47.964;7.982;2023-02-18T10:34:42;97694.16;;;18.02;56.86
48390;BME280;34643;47.964;7.982;2023-02-18T10:39:52;97687.06;;;18.04;56.94
48390;BME280;34643;47.964;7.982;2023-02-18T10:44:58;97687.06;;;18.04;56.64
48390;BME280;34643;47.964;7.982;2023-02-18T10:55:03;97657.41;;;18.05;56.51
48390;BME280;34643;47.964;7.982;2023-02-18T11:00:14;97659.28;;;18.03;56.38
48390;BME280;34643;47.964;7.982;2023-02-18T11:05:25;97649.75;;;18.02;56.61
48390;BME280;34643;47.964;7.982;2023-02-18T11:10:28;97645.81;;;18.10;56.20
48390;BME280;34643;47.964;7.982;2023-02-18T11:15:30;97648.81;;;18.03;56.47
48390;BME280;34643;47.964;7.982;2023-02-18T11:20:32;97653.09;;;18.04;56.54
48390;BME280;34643;47.964;7.982;2023-02-18T11:25:33;97645.81;;;18.10;56.46
48390;BME280;34643;47.964;7.982;2023-02-18T11:30:38;97636.31;;;18.09;56.25
48390;BME280;34643;47.964;7.982;2023-02-18T11:35:39;97636.19;;;18.10;56.42
48390;BME280;34643;47.964;7.982;2023-02-18T11:40:52;97631.81;;;18.11;56.36
48390;BME280;34643;47.964;7.982;2023-02-18T11:46:13;97632.66;;;18.11;56.40
48390;BME280;34643;47.964;7.982;2023-02-18T11:56:16;97620.31;;;18.13;56.11
48390;BME280;34643;47.964;7.982;2023-02-18T12:01:27;97605.28;;;18.17;55.96
48390;BME280;34643;47.964;7.982;2023-02-18T12:06:30;97608.09;;;18.14;55.96
48390;BME280;34643;47.964;7.982;2023-02-18T12:11:35;97599.53;;;18.12;56.00
48390;BME280;34643;47.964;7.982;2023-02-18T12:16:39;97591.91;;;18.09;56.12
48390;BME280;34643;47.964;7.982;2023-02-18T12:32:11;97591.03;;;18.08;56.08
48390;BME280;34643;47.964;7.982;2023-02-18T12:42:30;97579.94;;;18.04;56.04
48390;BME280;34643;47.964;7.982;2023-02-18T12:52:45;97566.91;;;18.04;56.03
48390;BME280;34643;47.964;7.982;2023-02-18T13:08:10;97564.78;;;17.97;56.10
48390;BME280;34643;47.964;7.982;2023-02-18T13:13:21;97558.72;;;17.96;55.96
48390;BME280;34643;47.964;7.982;2023-02-18T13:23:28;97567.03;;;17.89;56.04
48390;BME280;34643;47.964;7.982;2023-02-18T13:28:35;97553.25;;;17.86;56.08
48390;BME280;34643;47.964;7.982;2023-02-18T13:39:00;97536.91;;;17.83;56.11
48390;BME280;34643;47.964;7.982;2023-02-18T13:44:06;97533.56;;;17.81;56.08
48390;BME280;34643;47.964;7.982;2023-02-18T13:49:08;97526.66;;;17.80;56.24
48390;BME280;34643;47.964;7.982;2023-02-18T14:09:41;97526.22;;;17.73;56.15
48390;BME280;34643;47.964;7.982;2023-02-18T14:14:42;97509.69;;;17.73;55.96
48390;BME280;34643;47.964;7.982;2023-02-18T14:19:42;97506.34;;;17.71;56.21
48390;BME280;34643;47.964;7.982;2023-02-18T14:24:55;97510.66;;;17.72;55.99
48390;BME280;34643;47.964;7.982;2023-02-18T14:30:00;97498.63;;;17.69;56.08
48390;BME280;34643;47.964;7.982;2023-02-18T14:50:13;97497.16;;;17.65;56.04
48390;BME280;34643;47.964;7.982;2023-02-18T15:00:24;97490.25;;;17.64;55.75
48390;BME280;34643;47.964;7.982;2023-02-18T15:05:28;97498.19;;;17.62;55.76
48390;BME280;34643;47.964;7.982;2023-02-18T15:15:35;97493.16;;;17.59;55.71
48390;BME280;34643;47.964;7.982;2023-02-18T15:20:36;97490.56;;;17.59;55.89
48390;BME280;34643;47.964;7.982;2023-02-18T15:25:37;97490.66;;;17.58;55.66
48390;BME280;34643;47.964;7.982;2023-02-18T15:30:38;97481.25;;;17.55;55.78
48390;BME280;34643;47.964;7.982;2023-02-18T15:35:39;97478.75;;;17.54;55.75
48390;BME280;34643;47.964;7.982;2023-02-18T15:40:40;97476.22;;;17.52;55.75
48390;BME280;34643;47.964;7.982;2023-02-18T15:45:41;97478.84;;;17.52;55.83
48390;BME280;34643;47.964;7.982;2023-02-18T15:50:50;97471.94;;;17.51;55.80
48390;BME280;34643;47.964;7.982;2023-02-18T15:55:51;97466.69;;;17.51;55.71
48390;BME280;34643;47.964;7.982;2023-02-18T16:01:01;97470.38;;;17.48;55.74
48390;BME280;34643;47.964;7.982;2023-02-18T16:11:09;97458.22;;;17.47;55.69
48390;BME280;34643;47.964;7.982;2023-02-18T16:16:19;97462.72;;;17.45;55.76
48390;BME280;34643;47.964;7.982;2023-02-18T16:21:28;97456.75;;;17.43;55.73
48390;BME280;34643;47.964;7.982;2023-02-18T16:26:31;97456.03;;;17.41;56.00
48390;BME280;34643;47.964;7.982;2023-02-18T16:31:31;97445.69;;;17.40;55.93
48390;BME280;34643;47.964;7.982;2023-02-18T16:36:32;97439.00;;;17.36;55.94
48390;BME280;34643;47.964;7.982;2023-02-18T16:41:32;97445.03;;;17.36;55.82
48390;BME280;34643;47.964;7.982;2023-02-18T16:46:32;97440.66;;;17.37;55.82
48390;BME280;34643;47.964;7.982;2023-02-18T16:51:34;97443.25;;;17.37;55.85
48390;BME280;34643;47.964;7.982;2023-02-18T16:56:34;97448.47;;;17.37;55.68
48390;BME280;34643;47.964;7.982;2023-02-18T17:01:35;97449.44;;;17.36;55.60
48390;BME280;34643;47.964;7.982;2023-02-18T17:06:37;97456.50;;;17.34;55.86
48390;BME280;34643;47.964;7.982;2023-02-18T17:11:37;97465.28;;;17.33;55.79
48390;BME280;34643;47.964;7.982;2023-02-18T17:16:37;97461.94;;;17.31;55.79
48390;BME280;34643;47.964;7.982;2023-02-18T17:21:38;97467.16;;;17.31;55.72
48390;BME280;34643;47.964;7.982;2023-02-18T17:26:38;97468.91;;;17.30;55.46
48390;BME280;34643;47.964;7.982;2023-02-18T17:31:40;97472.56;;;17.27;55.66
48390;BME280;34643;47.964;7.982;2023-02-18T17:36:43;97475.16;;;17.27;55.83
48390;BME280;34643;47.964;7.982;2023-02-18T17:41:44;97496.13;;;17.26;55.65
48390;BME280;34643;47.964;7.982;2023-02-18T17:46:44;97492.78;;;17.24;55.62
48390;BME280;34643;47.964;7.982;2023-02-18T17:51:45;97498.91;;;17.23;55.67
48390;BME280;34643;47.964;7.982;2023-02-18T17:56:45;97499.00;;;17.21;55.76
48390;BME280;34643;47.964;7.982;2023-02-18T18:01:46;97494.75;;;17.20;55.73
48390;BME280;34643;47.964;7.982;2023-02-18T18:06:46;97493.06;;;17.19;55.51
48390;BME280;34643;47.964;7.982;2023-02-18T18:11:47;97488.78;;;17.18;55.58
48390;BME280;34643;47.964;7.982;2023-02-18T18:16:47;97490.66;;;17.16;55.54
48390;BME280;34643;47.964;7.982;2023-02-18T18:21:48;97494.09;;;17.17;55.78
48390;BME280;34643;47.964;7.982;2023-02-18T18:26:48;97489.81;;;17.16;55.58
48390;BME280;34643;47.964;7.982;2023-02-18T18:31:48;97484.69;;;17.14;55.73
48390;BME280;34643;47.964;7.982;2023-02-18T18:36:48;97489.06;;;17.14;55.55
48390;BME280;34643;47.964;7.982;2023-02-18T18:41:49;97487.41;;;17.13;55.63
48390;BME280;34643;47.964;7.982;2023-02-18T18:46:49;97496.97;;;17.12;55.53
48390;BME280;34643;47.964;7.982;2023-02-18T18:51:49;97497.06;;;17.10;55.74
48390;BME280;34643;47.964;7.982;2023-02-18T18:56:49;97491.03;;;17.10;55.67
48390;BME280;34643;47.964;7.982;2023-02-18T19:01:52;97487.69;;;17.08;55.64
48390;BME280;34643;47.964;7.982;2023-02-18T19:06:53;97489.47;;;17.07;55.53
48390;BME280;34643;47.964;7.982;2023-02-18T19:11:53;97486.00;;;17.07;55.55
48390;BME280;34643;47.964;7.982;2023-02-18T19:16:54;97499.97;;;17.06;55.66
48390;BME280;34643;47.964;7.982;2023-02-18T19:21:55;97487.88;;;17.05;55.49
48390;BME280;34643;47.964;7.982;2023-02-18T19:26:55;97490.47;;;17.05;55.63
48390;BME280;34643;47.964;7.982;2023-02-18T19:31:55;97494.84;;;17.04;55.55
48390;BME280;34643;47.964;7.982;2023-02-18T19:36:56;97494.59;;;17.09;55.76
48390;BME280;34643;47.964;7.982;2023-02-18T19:41:56;97493.34;;;17.29;55.97
48390;BME280;34643;47.964;7.982;2023-02-18T19:46:56;97500.06;;;17.19;55.87
48390;BME280;34643;47.964;7.982;2023-02-18T19:51:58;97495.09;;;17.14;56.01
48390;BME280;34643;47.964;7.982;2023-02-18T19:57:03;97495.31;;;17.11;56.06
48390;BME280;34643;47.964;7.982;2023-02-18T20:02:05;97494.38;;;17.12;55.96
48390;BME280;34643;47.964;7.982;2023-02-18T20:07:05;97488.78;;;17.18;55.75
48390;BME280;34643;47.964;7.982;2023-02-18T20:12:06;97490.25;;;17.22;55.72
48390;BME280;34643;47.964;7.982;2023-02-18T20:17:07;97479.75;;;17.51;55.76
48390;BME280;34643;47.964;7.982;2023-02-18T20:22:07;97483.31;;;17.50;56.18
48390;BME280;34643;47.964;7.982;2023-02-18T20:27:09;97490.88;;;17.67;56.58
48390;BME280;34643;47.964;7.982;2023-02-18T20:32:10;97493.91;;;17.61;56.74
48390;BME280;34643;47.964;7.982;2023-02-18T20:37:10;97485.38;;;17.45;56.71
48390;BME280;34643;47.964;7.982;2023-02-18T20:42:10;97488.91;;;17.44;56.98
48390;BME280;34643;47.964;7.982;2023-02-18T20:47:11;97487.25;;;17.43;56.93
48390;BME280;34643;47.964;7.982;2023-02-18T20:52:14;97501.97;;;17.44;56.85
48390;BME280;34643;47.964;7.982;2023-02-18T20:57:14;97488.81;;;17.45;56.93
48390;BME280;34643;47.964;7.982;2023-02-18T21:02:15;97486.94;;;17.47;57.17
48390;BME280;34643;47.964;7.982;2023-02-18T21:07:16;97473.91;;;17.47;57.33
48390;BME280;34643;47.964;7.982;2023-02-18T21:12:16;97475.69;;;17.47;57.45
48390;BME280;34643;47.964;7.982;2023-02-18T21:17:17;97472.13;;;17.48;57.26
48390;BME280;34643;47.964;7.982;2023-02-18T21:22:17;97464.09;;;17.51;57.31
48390;BME280;34643;47.964;7.982;2023-02-18T21:27:17;97465.69;;;17.54;57.43
48390;BME280;34643;47.964;7.982;2023-02-18T21:32:17;97456.06;;;17.54;57.56
48390;BME280;34643;47.964;7.982;2023-02-18T21:37:18;97456.72;;;17.58;57.59
48390;BME280;34643;47.964;7.982;2023-02-18T21:42:18;97452.31;;;17.58;58.04
48390;BME280;34643;47.964;7.982;2023-02-18T21:47:18;97459.22;;;17.59;57.79
48390;BME280;34643;47.964;7.982;2023-02-18T21:52:18;97459.78;;;17.64;57.88
48390;BME280;34643;47.964;7.982;2023-02-18T21:57:19;97454.56;;;17.64;57.87
48390;BME280;34643;47.964;7.982;2023-02-18T22:02:22;97461.34;;;17.67;57.92
48390;BME280;34643;47.964;7.982;2023-02-18T22:07:23;97457.91;;;17.66;58.16
48390;BME280;34643;47.964;7.982;2023-02-18T22:12:24;97463.94;;;17.67;58.20
48390;BME280;34643;47.964;7.982;2023-02-18T22:17:25;97463.13;;;17.66;58.28
48390;BME280;34643;47.964;7.982;2023-02-18T22:22:28;97460.50;;;17.66;58.44
48390;BME280;34643;47.964;7.982;2023-02-18T22:27:28;97456.22;;;17.65;58.45
48390;BME280;34643;47.964;7.982;2023-02-18T22:32:29;97453.31;;;17.70;58.40
48390;BME280;34643;47.964;7.982;2023-02-18T22:37:32;97448.09;;;17.70;58.67
48390;BME280;34643;47.964;7.982;2023-02-18T22:42:32;97451.44;;;17.72;58.40
48390;BME280;34643;47.964;7.982;2023-02-18T22:47:33;97448.91;;;17.71;58.54
48390;BME280;34643;47.964;7.982;2023-02-18T22:52:34;97448.91;;;17.71;58.42
48390;BME280;34643;47.964;7.982;2023-02-18T22:57:34;97449.66;;;17.73;58.53
48390;BME280;34643;47.964;7.982;2023-02-18T23:02:34;97449.75;;;17.71;58.67
48390;BME280;34643;47.964;7.982;2023-02-18T23:07:36;97446.13;;;17.74;58.81
48390;BME280;34643;47.964;7.982;2023-02-18T23:12:37;97449.56;;;17.74;58.77
48390;BME280;34643;47.964;7.982;2023-02-18T23:17:37;97436.59;;;17.73;59.04
48390;BME280;34643;47.964;7.982;2023-02-18T23:22:37;97453.84;;;17.75;58.83
48390;BME280;34643;47.964;7.982;2023-02-18T23:27:37;97446.66;;;17.79;59.03
48390;BME280;34643;47.964;7.982;2023-02-18T23:32:38;97438.09;;;17.77;59.16
48390;BME280;34643;47.964;7.982;2023-02-18T23:37:38;97424.31;;;17.75;59.21
48390;BME280;34643;47.964;7.982;2023-02-18T23:42:57;97423.16;;;17.79;58.92
48390;BME280;34643;47.964;7.982;2023-02-18T23:47:57;97430.16;;;17.78;59.23
48390;BME280;34643;47.964;7.982;2023-02-18T23:52:57;97430.16;;;17.78;59.30
48390;BME280;34643;47.964;7.982;2023-02-18T23:57:57;97429.41;;;17.76;59.41
